Time;durP1;ratioP1;P1;durP2;ratioP2;P2;SDS_P1;SDS_P2;PMS_P1;PMS_P2;Temp;Humidity;BMP_temperature;BMP_pressure;BME280_temperature;BME280_humidity;BME280_pressure;Samples;Min_cycle;Max_cycle;Signal;HPM_P1;HPM_P2
2022/02/13 01:20:36;;;;;;;2.87;1.00;;;;;;;;;;4933955;29;20041;-80
2022/02/13 01:23:07;;;;;;;4.18;1.60;;;;;;;;;;4924252;29;20167;-78
2022/02/13 01:25:57;;;;;;;2.80;0.93;;;;;;;;;;4925604;29;20082;-79
2022/02/13 01:28:28;;;;;;;2.03;1.08;;;;;;;;;;4978566;28;20098;-79
2022/02/13 01:31:02;;;;;;;3.35;1.05;;;;;;;;;;4972844;28;20067;-78
2022/02/13 01:33:35;;;;;;;1.07;0.47;;;;;;;;;;4982258;28;20046;-79
2022/02/13 01:36:14;;;;;;;2.28;1.15;;;;;;;;;;4973888;28;20059;-80
2022/02/13 01:38:43;;;;;;;4.32;1.83;;;;;;;;;;4977119;28;20027;-79
2022/02/13 01:41:14;;;;;;;2.92;1.27;;;;;;;;;;4976641;28;20037;-79
2022/02/13 01:43:44;;;;;;;2.17;1.05;;;;;;;;;;4978059;28;20054;-79
2022/02/13 01:54:34;;;;;;;3.85;1.67;;;;;;;;;;4988368;28;20133;-78
2022/02/13 02:21:24;;;;;;;2.83;1.05;;;;;;;;;;4903470;29;20067;-79
2022/02/13 02:44:15;;;;;;;2.10;0.87;;;;;;;;;;4956958;28;20122;-78
2022/02/13 03:03:57;;;;;;;1.97;1.30;;;;;;;;;;4963882;28;20077;-78
2022/02/13 03:17:55;;;;;;;1.95;0.95;;;;;;;;;;4939007;29;20051;-78
2022/02/13 03:21:31;;;;;;;2.80;1.20;;;;;;;;;;4959291;28;20107;-78
2022/02/13 03:24:34;;;;;;;6.13;1.40;;;;;;;;;;4965450;28;20035;-78
2022/02/13 03:28:40;;;;;;;2.17;1.08;;;;;;;;;;4966922;28;20107;-78
2022/02/13 03:35:30;;;;;;;2.45;1.25;;;;;;;;;;4964122;29;20047;-78
2022/02/13 03:42:02;;;;;;;6.78;1.77;;;;;;;;;;4965033;28;20102;-78
2022/02/13 03:45:44;;;;;;;2.80;1.30;;;;;;;;;;4960078;29;20055;-78
2022/02/13 03:49:11;;;;;;;;;;;;;;;;;;;;;
2022/02/13 03:56:23;;;;;;;1.90;1.10;;;;;;;;;;4972185;29;20062;-78
2022/02/13 03:59:44;;;;;;;2.75;0.60;;;;;;;;;;4963882;28;20036;-78
2022/02/13 04:02:55;;;;;;;2.72;1.05;;;;;;;;;;4963723;29;20135;-78
2022/02/13 04:06:23;;;;;;;1.70;0.77;;;;;;;;;;4906874;29;20095;-78
2022/02/13 04:09:47;;;;;;;13.52;2.10;;;;;;;;;;4967762;29;20051;-78
2022/02/13 04:13:02;;;;;;;2.37;1.30;;;;;;;;;;4988246;28;20019;-78
2022/02/13 04:16:47;;;;;;;3.17;1.08;;;;;;;;;;4992674;28;20098;-78
2022/02/13 04:23:40;;;;;;;4.53;1.40;;;;;;;;;;4979180;28;20038;-79
2022/02/13 04:27:11;;;;;;;3.42;0.90;;;;;;;;;;4990335;28;20147;-78
2022/02/13 04:44:46;;;;;;;3.40;2.03;;;;;;;;;;4980004;28;20055;-78
2022/02/13 04:48:11;;;;;;;1.73;0.57;;;;;;;;;;4987116;28;20038;-78
2022/02/13 04:51:28;;;;;;;1.40;0.57;;;;;;;;;;4919360;28;20061;-78
2022/02/13 04:55:14;;;;;;;2.50;1.40;;;;;;;;;;4990864;28;20050;-78
2022/02/13 04:58:39;;;;;;;2.72;1.67;;;;;;;;;;4961471;28;20127;-78
2022/02/13 05:05:32;;;;;;;3.43;1.30;;;;;;;;;;4989310;28;20047;-78
2022/02/13 05:08:45;;;;;;;2.78;1.30;;;;;;;;;;4975911;28;20068;-78
2022/02/13 05:12:20;;;;;;;3.90;2.25;;;;;;;;;;4974804;28;20083;-78
2022/02/13 05:29:35;;;;;;;3.88;1.90;;;;;;;;;;4962012;28;20043;-78
2022/02/13 05:32:53;;;;;;;3.60;0.80;;;;;;;;;;4957237;28;20110;-78
2022/02/13 05:50:36;;;;;;;1.75;0.82;;;;;;;;;;4990848;28;20092;-78
2022/02/13 05:59:23;;;;;;;1.88;0.93;;;;;;;;;;4983036;28;20042;-77
2022/02/13 06:05:00;;;;;;;4.10;1.65;;;;;;;;;;4958494;28;20074;-78
2022/02/13 06:07:30;;;;;;;3.28;1.10;;;;;;;;;;4965895;28;20074;-77
2022/02/13 06:10:00;;;;;;;2.17;1.37;;;;;;;;;;4971901;28;20055;-77
2022/02/13 06:12:34;;;;;;;3.30;2.03;;;;;;;;;;4937596;28;20133;-78
2022/02/13 06:15:10;;;;;;;6.03;1.40;;;;;;;;;;4946002;28;20039;-77
2022/02/13 06:17:42;;;;;;;3.03;1.02;;;;;;;;;;4955352;28;20055;-77
2022/02/13 06:20:12;;;;;;;2.40;0.80;;;;;;;;;;4967679;28;20047;-77
2022/02/13 06:46:46;;;;;;;7.75;1.65;;;;;;;;;;4919017;29;20092;-79
2022/02/13 06:57:54;;;;;;;3.63;1.65;;;;;;;;;;4914667;28;20031;-80
2022/02/13 07:17:26;;;;;;;4.00;1.75;;;;;;;;;;4774321;29;20047;-78
2022/02/13 07:20:01;;;;;;;2.30;0.67;;;;;;;;;;4767496;29;20047;-76
2022/02/13 07:22:30;;;;;;;2.97;1.45;;;;;;;;;;4752743;30;20056;-76
2022/02/13 07:27:59;;;;;;;2.28;1.13;;;;;;;;;;4788143;29;20066;-77
2022/02/13 07:34:38;;;;;;;5.53;1.67;;;;;;;;;;4779026;29;20123;-78
2022/02/13 07:37:18;;;;;;;6.80;1.90;;;;;;;;;;4775991;29;20123;-77
2022/02/13 07:39:47;;;;;;;2.60;1.02;;;;;;;;;;4769736;29;20056;-77
2022/02/13 07:42:23;;;;;;;4.70;2.00;;;;;;;;;;4781394;29;20481;-79
2022/02/13 07:45:31;;;;;;;6.05;2.00;;;;;;;;;;4821069;29;20108;-77
2022/02/13 07:49:26;;;;;;;4.30;2.50;;;;;;;;;;4843973;29;20061;-78
2022/02/13 07:52:31;;;;;;;2.42;1.20;;;;;;;;;;4746557;29;20047;-75
2022/02/13 07:55:01;;;;;;;3.38;2.30;;;;;;;;;;4772988;29;20134;-76
2022/02/13 07:57:39;;;;;;;5.63;2.35;;;;;;;;;;4786952;29;20082;-78
2022/02/13 09:07:20;;;;;;;5.53;2.17;;;;;;;;;;5004755;28;20079;-84
2022/02/13 09:09:56;;;;;;;6.45;2.38;;;;;;;;;;4985310;28;20042;-85
2022/02/13 09:13:12;;;;;;;3.80;1.70;;;;;;;;;;4985671;28;20043;-86
2022/02/13 09:18:48;;;;;;;5.40;1.95;;;;;;;;;;5060606;23;20058;-86
2022/02/13 09:21:31;;;;;;;4.63;2.53;;;;;;;;;;4956985;28;20137;-85
2022/02/13 09:24:03;;;;;;;5.47;2.65;;;;;;;;;;4962212;28;20078;-86
2022/02/13 09:27:23;;;;;;;5.28;2.45;;;;;;;;;;4973029;28;20066;-88
2022/02/13 09:30:03;;;;;;;6.30;1.83;;;;;;;;;;4986668;28;20031;-86
2022/02/13 09:32:50;;;;;;;5.22;2.03;;;;;;;;;;4980573;28;20134;-85
2022/02/13 09:35:34;;;;;;;4.23;1.50;;;;;;;;;;4953386;28;20047;-85
2022/02/13 09:42:12;;;;;;;8.52;2.55;;;;;;;;;;4981506;28;20041;-86
2022/02/13 09:44:42;;;;;;;6.72;2.22;;;;;;;;;;4956132;28;20035;-85
2022/02/13 09:47:36;;;;;;;4.63;2.38;;;;;;;;;;4934126;28;20043;-86
2022/02/13 09:50:36;;;;;;;6.50;2.43;;;;;;;;;;4942693;28;20051;-86
2022/02/13 09:53:09;;;;;;;4.22;2.08;;;;;;;;;;4944943;28;20135;-85
2022/02/13 09:55:46;;;;;;;5.70;2.40;;;;;;;;;;4952316;28;20042;-86
2022/02/13 09:58:22;;;;;;;4.60;2.88;;;;;;;;;;4949956;28;20047;-86
2022/02/13 10:01:59;;;;;;;8.25;2.13;;;;;;;;;;4976548;23;20066;-86
2022/02/13 10:04:43;;;;;;;4.50;2.00;;;;;;;;;;4944981;28;20898;-86
2022/02/13 10:07:21;;;;;;;5.40;2.25;;;;;;;;;;4939827;28;20069;-85
2022/02/13 10:10:00;;;;;;;4.80;2.13;;;;;;;;;;4933868;28;20579;-86
2022/02/13 10:12:39;;;;;;;6.72;2.47;;;;;;;;;;4936045;28;20059;-80
2022/02/13 10:15:32;;;;;;;4.30;2.35;;;;;;;;;;4931981;28;20050;-85
2022/02/13 10:18:03;;;;;;;4.10;2.60;;;;;;;;;;4930496;28;20047;-84
2022/02/13 10:20:33;;;;;;;4.70;2.00;;;;;;;;;;4931136;28;20051;-83
2022/02/13 10:23:06;;;;;;;10.82;2.28;;;;;;;;;;4931904;28;20120;-83
2022/02/13 10:25:36;;;;;;;4.50;2.17;;;;;;;;;;4936792;28;20055;-86
2022/02/13 10:31:21;;;;;;;7.17;2.27;;;;;;;;;;5055968;23;20042;-86
2022/02/13 10:58:03;;;;;;;5.07;2.38;;;;;;;;;;5075139;23;20078;-87
2022/02/13 11:00:43;;;;;;;3.42;1.95;;;;;;;;;;4993964;28;20054;-87
2022/02/13 11:03:21;;;;;;;5.10;2.03;;;;;;;;;;4982949;28;20058;-87
2022/02/13 11:06:03;;;;;;;4.40;1.90;;;;;;;;;;4966322;28;20034;-86
2022/02/13 11:08:36;;;;;;;5.10;1.95;;;;;;;;;;4980411;28;20070;-87
2022/02/13 11:11:07;;;;;;;8.93;2.22;;;;;;;;;;4971143;28;20046;-86
2022/02/13 11:13:40;;;;;;;5.75;2.30;;;;;;;;;;4975546;28;20048;-87
2022/02/13 11:16:34;;;;;;;5.87;2.27;;;;;;;;;;4978562;28;20042;-87
2022/02/13 11:19:05;;;;;;;13.07;2.85;;;;;;;;;;4982636;28;20050;-88
2022/02/13 11:21:37;;;;;;;4.35;1.85;;;;;;;;;;4977846;28;20401;-86
2022/02/13 11:27:09;;;;;;;4.47;2.25;;;;;;;;;;4986098;28;20110;-87
2022/02/13 11:29:51;;;;;;;5.47;2.03;;;;;;;;;;4990702;28;20046;-87
2022/02/13 11:32:39;;;;;;;5.38;2.28;;;;;;;;;;4966991;28;20500;-86
2022/02/13 11:35:34;;;;;;;5.25;1.98;;;;;;;;;;4976871;28;20108;-87
2022/02/13 11:38:05;;;;;;;6.38;2.60;;;;;;;;;;4988182;28;20042;-87
2022/02/13 11:40:52;;;;;;;10.05;2.75;;;;;;;;;;4983302;28;20064;-85
2022/02/13 11:43:54;;;;;;;9.47;2.57;;;;;;;;;;4998794;28;20058;-88
2022/02/13 11:46:43;;;;;;;8.27;2.70;;;;;;;;;;4977376;28;20066;-88
2022/02/13 11:49:15;;;;;;;5.53;1.83;;;;;;;;;;4974892;28;20041;-84
2022/02/13 11:51:58;;;;;;;6.95;2.20;;;;;;;;;;4989893;28;20132;-82
2022/02/13 11:57:54;;;;;;;5.80;2.07;;;;;;;;;;4988154;28;20046;-88
2022/02/13 12:00:32;;;;;;;5.13;1.63;;;;;;;;;;4978487;28;20481;-88
2022/02/13 12:03:12;;;;;;;4.93;2.08;;;;;;;;;;4979102;28;20054;-89
2022/02/13 12:06:10;;;;;;;4.07;2.10;;;;;;;;;;4959478;28;20042;-86
2022/02/13 12:08:43;;;;;;;4.88;1.63;;;;;;;;;;4977037;28;20137;-88
2022/02/13 12:11:12;;;;;;;6.63;1.63;;;;;;;;;;4971128;28;20093;-89
2022/02/13 12:13:43;;;;;;;5.93;2.22;;;;;;;;;;4952650;28;20054;-90
2022/02/13 12:16:13;;;;;;;4.60;2.00;;;;;;;;;;4986028;28;20077;-88
2022/02/13 12:18:42;;;;;;;5.25;2.00;;;;;;;;;;4977466;28;20528;-89
2022/02/13 12:21:11;;;;;;;4.15;1.70;;;;;;;;;;4968818;28;20046;-89
2022/02/13 12:23:42;;;;;;;5.10;2.43;;;;;;;;;;4960580;28;20054;-90
2022/02/13 12:26:12;;;;;;;5.07;2.67;;;;;;;;;;4949657;28;20141;-90
2022/02/13 12:28:41;;;;;;;5.82;1.92;;;;;;;;;;4971741;28;20050;-89
2022/02/13 12:34:50;;;;;;;6.15;2.17;;;;;;;;;;5310921;23;20169;-87
2022/02/13 12:37:40;;;;;;;10.77;2.37;;;;;;;;;;4947040;28;20042;-88
2022/02/13 12:40:19;;;;;;;3.78;1.63;;;;;;;;;;4960395;28;20054;-89
2022/02/13 12:42:53;;;;;;;5.28;1.70;;;;;;;;;;4976947;28;20058;-90
2022/02/13 12:45:51;;;;;;;6.60;2.08;;;;;;;;;;4957693;28;20370;-90
2022/02/13 12:48:22;;;;;;;4.10;2.08;;;;;;;;;;4949182;28;20050;-89
2022/02/13 12:50:53;;;;;;;6.80;1.73;;;;;;;;;;4977638;28;20334;-86
2022/02/13 12:53:25;;;;;;;5.82;1.50;;;;;;;;;;4967784;28;20501;-88
2022/02/13 12:56:13;;;;;;;5.95;1.88;;;;;;;;;;4957151;28;20054;-89
2022/02/13 12:58:42;;;;;;;6.75;2.13;;;;;;;;;;4991439;28;20054;-91
2022/02/13 13:01:14;;;;;;;6.32;1.98;;;;;;;;;;4955433;28;20074;-86
2022/02/13 13:03:44;;;;;;;5.53;2.20;;;;;;;;;;4971161;28;20038;-87
2022/02/13 13:06:25;;;;;;;4.28;1.95;;;;;;;;;;4994441;28;20464;-89
2022/02/13 13:08:57;;;;;;;5.25;1.42;;;;;;;;;;4971322;28;20103;-84
2022/02/13 13:11:30;;;;;;;3.63;1.90;;;;;;;;;;4953125;28;20050;-85
2022/02/13 13:14:25;;;;;;;6.90;1.90;;;;;;;;;;4959673;28;20651;-86
2022/02/13 13:17:05;;;;;;;5.73;2.00;;;;;;;;;;4954275;28;21779;-85
2022/02/13 13:19:34;;;;;;;3.97;1.88;;;;;;;;;;4968591;28;20038;-83
2022/02/13 13:22:17;;;;;;;5.70;1.55;;;;;;;;;;4986666;28;20050;-84
2022/02/13 13:24:47;;;;;;;6.80;1.98;;;;;;;;;;4943094;28;20047;-86
2022/02/13 13:27:23;;;;;;;6.15;2.00;;;;;;;;;;4989308;28;20030;-78
2022/02/13 13:29:53;;;;;;;2.77;1.40;;;;;;;;;;4963912;28;20050;-87
2022/02/13 13:32:23;;;;;;;3.60;1.35;;;;;;;;;;4989230;28;20054;-91
2022/02/13 13:34:53;;;;;;;7.28;1.80;;;;;;;;;;4953235;28;20058;-87
2022/02/13 13:37:29;;;;;;;5.38;1.50;;;;;;;;;;4969074;28;20089;-87
2022/02/13 13:40:02;;;;;;;5.68;2.00;;;;;;;;;;4968700;28;20130;-86
2022/02/13 13:42:36;;;;;;;3.03;1.17;;;;;;;;;;4959694;28;20054;-89
2022/02/13 13:45:06;;;;;;;3.45;1.38;;;;;;;;;;4964581;28;20098;-88
2022/02/13 13:47:36;;;;;;;5.72;1.60;;;;;;;;;;4963980;28;20133;-87
2022/02/13 13:50:06;;;;;;;2.80;1.20;;;;;;;;;;4946791;28;20046;-84
2022/02/13 13:52:35;;;;;;;6.18;1.90;;;;;;;;;;4960418;28;20050;-90
2022/02/13 13:55:04;;;;;;;4.93;1.40;;;;;;;;;;4947816;28;20146;-90
2022/02/13 13:57:35;;;;;;;4.95;1.50;;;;;;;;;;4968377;28;20070;-91
2022/02/13 14:00:05;;;;;;;5.18;1.85;;;;;;;;;;4945841;28;20470;-89
2022/02/13 14:02:48;;;;;;;3.38;2.00;;;;;;;;;;4959458;28;20058;-86
2022/02/13 14:05:18;;;;;;;4.38;1.48;;;;;;;;;;4948463;28;20046;-82
2022/02/13 14:07:47;;;;;;;3.73;1.20;;;;;;;;;;4966709;28;20144;-88
2022/02/13 14:10:16;;;;;;;4.35;1.70;;;;;;;;;;4968773;28;20053;-88
2022/02/13 14:12:50;;;;;;;4.90;1.63;;;;;;;;;;4964872;28;20042;-86
2022/02/13 14:15:19;;;;;;;3.40;1.48;;;;;;;;;;4947022;28;20576;-77
2022/02/13 14:17:49;;;;;;;4.38;1.60;;;;;;;;;;4968483;28;20043;-86
2022/02/13 19:09:32;;;;;;;7.07;3.92;;;;;;;;;;5004786;27;1947460;-79
2022/02/13 19:13:27;;;;;;;9.45;3.95;;;;;;;-144.86;100.00;65694.16;5021365;27;20431;-79
2022/02/13 19:15:56;;;;;;;7.55;3.90;;;;;;;-144.86;100.00;65694.16;4904344;28;20148;-80
2022/02/13 19:18:25;;;;;;;10.23;3.78;;;;;;;-144.86;100.00;65694.16;5041047;28;20464;-77
2022/02/13 19:20:54;;;;;;;6.25;3.35;;;;;;;-144.86;100.00;65694.16;5037154;28;20051;-81
2022/02/13 19:23:22;;;;;;;;;;;;;;;-144.86;100.00;65694.16;5030641;28;20072;-79
2022/02/13 19:30:19;;;;;;;7.80;3.38;;;;;;;;;;5115628;27;20055;-79
2022/02/13 19:32:48;;;;;;;;;;;;;;;;;;5039773;27;20110;-77
2022/02/13 19:35:21;;;;;;;;;;;;;;;;;;5061387;27;19926;-79
2022/02/13 19:37:51;;;;;;;;;;;;;;;;;;5109087;27;21284;-79
2022/02/13 19:42:05;;;;;;;;;;;;;;;;;;5095240;27;20011;-79
2022/02/13 19:44:35;;;;;;;;;;;;;;;;;;5097081;28;20004;-79
2022/02/13 19:47:02;;;;;;;;;;;;;;;;;;4988661;28;19943;-77
2022/02/13 19:49:32;;;;;;;;;;;;;;;;;;5023229;28;20019;-79
2022/02/13 19:52:00;;;;;;;;;;;;;;;;;;5039751;28;19940;-80
2022/02/13 19:54:28;;;;;;;;;;;;;;;;;;5018065;28;19975;-79
2022/02/13 19:56:57;;;;;;;;;;;;;;;;;;5039705;28;20286;-80
2022/02/13 19:59:27;;;;;;;;;;;;;;;;;;5009346;28;106281;-80
2022/02/13 20:02:19;;;;;;;;;;;;;;;;;;5033911;28;19933;-79
2022/02/13 20:04:48;;;;;;;;;;;;;;;;;;5056247;28;19947;-78
2022/02/13 20:07:17;;;;;;;;;;;;;;;;;;5063390;28;19925;-78
2022/02/13 20:09:45;;;;;;;;;;;;;;;;;;5053142;28;19933;-79
2022/02/13 20:12:36;;;;;;;;;;;;;;;;;;5056835;28;19951;-79
2022/02/13 20:15:05;;;;;;;;;;;;;;;;;;5051533;28;19968;-81
2022/02/13 20:17:32;;;;;;;;;;;;;;;;;;5059656;28;19938;-77
2022/02/13 20:20:00;;;;;;;;;;;;;;;;;;5056045;28;20042;-78
2022/02/13 20:22:28;;;;;;;;;;;;;;;;;;5059161;28;20375;-79
2022/02/13 20:25:00;;;;;;;;;;;;;;;;;;5067241;28;20020;-81
2022/02/13 20:27:28;;;;;;;;;;;;;;;;;;5059958;28;19931;-81
2022/02/13 20:29:57;;;;;;;;;;;;;;;;;;5056638;28;19925;-79
2022/02/13 20:32:28;;;;;;;;;;;;;;;;;;5060298;28;19986;-81
2022/02/13 20:34:56;;;;;;;;;;;;;;;;;;5057646;28;21088;-81
2022/02/13 20:37:25;;;;;;;;;;;;;;;;;;5056991;28;19986;-80
2022/02/13 20:39:52;;;;;;;;;;;;;;;;;;5056745;28;20343;-81
2022/02/13 20:42:22;;;;;;;;;;;;;;;;;;5056320;28;19928;-80
2022/02/13 20:44:49;;;;;;;;;;;;;;;;;;5058301;28;20028;-78
2022/02/13 20:47:17;;;;;;;;;;;;;;;;;;5049123;28;19986;-80
2022/02/13 20:49:46;;;;;;;;;;;;;;;;;;5055612;28;19931;-81
2022/02/13 20:52:14;;;;;;;;;;;;;;;;;;5048929;28;19924;-79
2022/02/13 20:54:42;;;;;;;;;;;;;;;;;;5042006;28;19928;-80
2022/02/13 20:57:11;;;;;;;;;;;;;;;;;;5054848;28;19929;-80
2022/02/13 20:59:39;;;;;;;;;;;;;;;;;;5045589;28;19988;-80
2022/02/13 21:02:07;;;;;;;;;;;;;;;;;;5033240;28;19933;-79
2022/02/13 21:04:59;;;;;;;;;;;;;;;;;;5042831;28;20070;-80
2022/02/13 21:07:28;;;;;;;;;;;;;;;;;;5033869;28;19937;-81
2022/02/13 21:09:55;;;;;;;;;;;;;;;;;;5033106;28;19959;-82
2022/02/13 21:12:23;;;;;;;;;;;;;;;;;;5018907;28;19932;-80
2022/02/13 21:14:51;;;;;;;;;;;;;;;;;;5037619;28;19996;-81
2022/02/13 21:17:19;;;;;;;;;;;;;;;;;;4986054;28;180439;-80
2022/02/13 21:19:47;;;;;;;;;;;;;;;;;;5045879;28;19933;-80
2022/02/13 21:22:17;;;;;;;;;;;;;;;;;;5040267;28;19983;-80
2022/02/13 21:24:45;;;;;;;;;;;;;;;;;;5041886;28;19924;-81
2022/02/13 21:27:13;;;;;;;;;;;;;;;;;;5045724;28;19991;-81
2022/02/13 21:29:41;;;;;;;;;;;;;;;;;;5041940;28;19929;-82
2022/02/13 21:32:09;;;;;;;;;;;;;;;;;;5041777;28;19925;-81
2022/02/13 21:34:36;;;;;;;;;;;;;;;;;;5037900;28;20012;-81
2022/02/13 21:37:07;;;;;;;;;;;;;;;;;;5037667;28;21648;-79
2022/02/13 21:39:36;;;;;;;;;;;;;;;;;;5041176;28;20461;-78
2022/02/13 21:42:04;;;;;;;;;;;;;;;;;;5042711;28;20001;-82
2022/02/13 21:44:32;;;;;;;;;;;;;;;;;;5042932;28;19932;-82
2022/02/13 21:47:00;;;;;;;;;;;;;;;;;;5054014;28;19979;-79
2022/02/13 21:49:28;;;;;;;;;;;;;;;;;;5056217;28;20066;-80
2022/02/13 21:51:56;;;;;;;;;;;;;;;;;;5042305;28;19979;-81
2022/02/13 21:54:24;;;;;;;;;;;;;;;;;;5035712;28;19931;-80
2022/02/13 21:56:52;;;;;;;;;;;;;;;;;;5040504;28;19974;-80
2022/02/13 21:59:20;;;;;;;;;;;;;;;;;;5039172;28;19987;-81
2022/02/13 22:01:51;;;;;;;;;;;;;;;;;;5036859;28;19941;-80
2022/02/13 22:04:19;;;;;;;;;;;;;;;;;;5042170;28;19936;-79
2022/02/13 22:06:47;;;;;;;;;;;;;;;;;;5042748;28;19929;-83
2022/02/13 22:09:14;;;;;;;;;;;;;;;;;;5045784;28;20039;-78
2022/02/13 22:11:44;;;;;;;;;;;;;;;;;;5046286;28;19925;-81
2022/02/13 22:14:12;;;;;;;;;;;;;;;;;;5048228;28;20324;-80
2022/02/13 22:16:40;;;;;;;;;;;;;;;;;;5050381;28;19959;-81
2022/02/13 22:19:08;;;;;;;;;;;;;;;;;;5056218;28;19940;-81
2022/02/13 22:21:36;;;;;;;;;;;;;;;;;;5052053;28;19925;-79
2022/02/13 22:24:03;;;;;;;;;;;;;;;;;;5036764;28;20339;-82
2022/02/13 22:26:31;;;;;;;;;;;;;;;;;;5046671;28;19936;-81
2022/02/13 22:29:00;;;;;;;;;;;;;;;;;;5038925;28;19924;-82
2022/02/13 22:31:28;;;;;;;;;;;;;;;;;;5029692;28;19947;-84
2022/02/13 22:33:59;;;;;;;;;;;;;;;;;;5039936;28;19932;-81
2022/02/13 22:36:29;;;;;;;;;;;;;;;;;;5043820;28;19940;-81
2022/02/13 22:38:59;;;;;;;;;;;;;;;;;;5039083;28;20010;-81
2022/02/13 22:41:26;;;;;;;;;;;;;;;;;;5041280;28;19933;-80
2022/02/13 22:43:54;;;;;;;;;;;;;;;;;;5040215;28;20992;-83
2022/02/13 22:46:22;;;;;;;;;;;;;;;;;;5041709;28;19931;-83
2022/02/13 22:48:50;;;;;;;;;;;;;;;;;;5043065;28;19959;-79
2022/02/13 22:51:18;;;;;;;;;;;;;;;;;;5040491;28;19974;-82
2022/02/13 22:53:46;;;;;;;;;;;;;;;;;;5044264;28;19972;-81
2022/02/13 22:56:15;;;;;;;;;;;;;;;;;;5022930;28;20302;-83
2022/02/13 22:58:43;;;;;;;;;;;;;;;;;;5044021;28;19933;-80
2022/02/13 23:01:12;;;;;;;;;;;;;;;;;;5034220;28;19955;-82
2022/02/13 23:05:01;;;;;;;;;;;;;;;;;;5037920;28;19925;-81
2022/02/13 23:06:29;;;;;;;;;;;;;;;;;;5036686;28;19970;-83
2022/02/13 23:14:45;;;;;;;;;;;;;;;;;;4977384;28;20017;-80
2022/02/13 23:17:38;;;;;;;;;;;;;;;;;;5025380;28;19925;-81
2022/02/13 23:20:06;;;;;;;;;;;;;;;;;;5044362;28;19937;-80
2022/02/13 23:22:34;;;;;;;;;;;;;;;;;;5039192;28;20432;-83
2022/02/13 23:25:01;;;;;;;;;;;;;;;;;;5043589;28;20411;-84
2022/02/13 23:27:30;;;;;;;;;;;;;;;;;;5053813;28;20702;-83
2022/02/13 23:29:58;;;;;;;;;;;;;;;;;;5037745;28;19933;-82
2022/02/13 23:32:25;;;;;;;;;;;;;;;;;;5054407;28;19983;-81
2022/02/13 23:34:53;;;;;;;;;;;;;;;;;;5042376;28;20348;-78
2022/02/13 23:37:21;;;;;;;;;;;;;;;;;;5042821;28;19982;-85
2022/02/13 23:39:48;;;;;;;;;;;;;;;;;;5041492;28;19976;-80
2022/02/13 23:42:17;;;;;;;;;;;;;;;;;;5041051;28;19959;-82
2022/02/13 23:44:45;;;;;;;;;;;;;;;;;;5038243;28;19936;-80
2022/02/13 23:47:13;;;;;;;;;;;;;;;;;;5038043;28;19925;-83
2022/02/13 23:50:04;;;;;;;;;;;;;;;;;;5034835;28;19933;-84
2022/02/13 23:52:32;;;;;;;;;;;;;;;;;;5041688;28;19995;-80
2022/02/13 23:55:00;;;;;;;;;;;;;;;;;;5024685;28;20039;-81
2022/02/13 23:57:29;;;;;;;;;;;;;;;;;;5039626;28;19925;-82
2022/02/13 23:59:57;;;;;;;;;;;;;;;;;;5037432;28;19925;-79
